Time;durP1;ratioP1;P1;durP2;ratioP2;P2;SDS_P1;SDS_P2;PMS_P1;PMS_P2;Temp;Humidity;BMP_temperature;BMP_pressure;BME280_temperature;BME280_humidity;BME280_pressure;Samples;Min_cycle;Max_cycle;Signal;HPM_P1;HPM_P2
2022/06/26 00:04:02;;;;;;;7.43;3.30;;;;;;;19.38;96.79;100093.19;31303213;28;20053;-75
2022/06/26 00:19:04;;;;;;;7.82;3.33;;;;;;;19.22;98.61;100099.97;31280326;28;20401;-76
2022/06/26 00:34:06;;;;;;;5.63;3.03;;;;;;;19.08;100.00;100107.03;31299188;28;20060;-76
2022/06/26 00:49:09;;;;;;;10.23;2.83;;;;;;;19.05;100.00;100094.22;31280060;28;20052;-75
2022/06/26 01:04:11;;;;;;;10.60;2.65;;;;;;;18.89;100.00;100110.47;31305448;28;20376;-76
2022/06/26 01:19:17;;;;;;;4.68;3.22;;;;;;;18.83;100.00;100113.09;31271442;28;20045;-75
2022/06/26 01:34:19;;;;;;;4.20;2.47;;;;;;;18.81;100.00;100101.81;31283046;28;20045;-75
2022/06/26 01:49:23;;;;;;;4.18;2.33;;;;;;;18.69;100.00;100098.09;31278030;28;20048;-77
2022/06/26 02:04:24;;;;;;;5.23;2.43;;;;;;;18.62;100.00;100114.25;31270070;28;20060;-69
2022/06/26 02:19:26;;;;;;;4.07;2.60;;;;;;;18.67;99.88;100121.81;31287081;28;20055;-70
2022/06/26 02:34:28;;;;;;;8.52;2.97;;;;;;;19.03;97.69;100137.19;31271372;28;20057;-70
2022/06/26 02:49:31;;;;;;;5.07;3.10;;;;;;;18.99;96.31;100147.63;31256978;28;20513;-70
2022/06/26 03:04:32;;;;;;;7.38;3.08;;;;;;;18.93;96.31;100160.50;31259203;28;20053;-70
2022/06/26 03:19:35;;;;;;;7.00;4.25;;;;;;;18.98;96.53;100162.59;31279612;28;20526;-70
2022/06/26 03:34:37;;;;;;;8.73;3.63;;;;;;;19.03;95.38;100176.47;31282726;28;20051;-70
2022/06/26 03:49:39;;;;;;;5.93;3.42;;;;;;;19.20;93.80;100179.47;31282966;28;20055;-71
2022/06/26 04:04:41;;;;;;;5.03;2.97;;;;;;;19.32;93.30;100170.19;31247794;28;20052;-71
2022/06/26 04:19:43;;;;;;;4.65;3.03;;;;;;;19.48;92.88;100170.91;31265735;28;20047;-70
2022/06/26 04:34:45;;;;;;;4.90;3.35;;;;;;;19.74;92.31;100188.34;31269102;28;20514;-70
2022/06/26 04:49:47;;;;;;;5.07;3.35;;;;;;;20.38;89.27;100179.19;31290786;28;20049;-70
2022/06/26 05:04:49;;;;;;;7.33;4.33;;;;;;;21.65;83.77;100181.63;31301349;28;20683;-74
2022/06/26 05:19:51;;;;;;;5.75;3.30;;;;;;;22.56;77.52;100195.38;31272257;28;20045;-75
2022/06/26 05:34:53;;;;;;;7.57;3.77;;;;;;;23.14;74.48;100187.47;31295040;28;20490;-74
2022/06/26 05:49:55;;;;;;;7.70;3.97;;;;;;;23.80;71.07;100178.34;31323109;28;20041;-76
2022/06/26 06:04:57;;;;;;;6.00;2.73;;;;;;;24.49;66.93;100188.69;31297783;28;20049;-75
2022/06/26 06:19:59;;;;;;;6.77;3.40;;;;;;;25.13;62.34;100183.75;31308096;28;20059;-75
2022/06/26 06:35:02;;;;;;;3.30;1.98;;;;;;;25.79;59.49;100199.09;31274759;28;20052;-74
2022/06/26 06:50:07;;;;;;;3.80;2.80;;;;;;;25.42;59.11;100199.69;31273780;28;20049;-75
2022/06/26 07:05:10;;;;;;;6.25;2.38;;;;;;;25.89;58.01;100191.16;31280175;28;20044;-75
2022/06/26 07:20:12;;;;;;;4.57;2.60;;;;;;;26.36;56.42;100197.19;31262962;28;20052;-76
2022/06/26 07:35:14;;;;;;;3.22;2.10;;;;;;;27.04;54.54;100191.44;31269675;28;20049;-76
2022/06/26 07:50:16;;;;;;;4.15;2.72;;;;;;;27.49;52.00;100189.41;31275334;28;20045;-74
2022/06/26 08:05:18;;;;;;;4.70;1.73;;;;;;;27.62;50.73;100185.94;31256454;28;20566;-76
2022/06/26 08:20:21;;;;;;;3.03;1.48;;;;;;;28.09;48.33;100205.56;31270649;28;20067;-75
2022/06/26 08:35:23;;;;;;;3.80;1.88;;;;;;;28.87;44.88;100182.88;31273396;28;20056;-76
2022/06/26 08:50:26;;;;;;;3.33;2.28;;;;;;;29.13;43.07;100188.31;31292701;28;20453;-75
2022/06/26 09:05:29;;;;;;;3.83;1.95;;;;;;;29.87;44.20;100188.72;31295302;28;20410;-75
2022/06/26 09:20:33;;;;;;;4.43;1.50;;;;;;;30.47;42.24;100171.44;31303617;28;20398;-76
2022/06/26 09:35:35;;;;;;;4.22;2.35;;;;;;;30.79;41.63;100173.81;31327771;28;20072;-76
2022/06/26 09:50:38;;;;;;;3.10;1.75;;;;;;;29.90;42.09;100176.41;31279576;28;20049;-77
2022/06/26 10:21:12;;;;;;;2.58;1.75;;;;;;;31.06;38.73;100151.03;31267066;28;20098;-77
2022/06/26 10:36:24;;;;;;;1.67;1.30;;;;;;;31.74;38.60;100133.41;31304068;28;20061;-77
2022/06/26 10:51:29;;;;;;;6.05;2.05;;;;;;;31.47;37.67;100116.25;31317861;28;20052;-77
2022/06/26 11:06:32;;;;;;;4.00;1.50;;;;;;;32.10;37.05;100108.59;31302382;28;20049;-78
2022/06/26 11:21:34;;;;;;;3.70;1.95;;;;;;;29.97;39.08;100122.53;31288727;28;20046;-78
2022/06/26 11:36:52;;;;;;;5.70;1.95;;;;;;;29.54;40.76;100120.44;31341785;28;20384;-77
2022/06/26 11:51:59;;;;;;;2.58;1.88;;;;;;;29.90;40.21;100114.13;31322421;28;20465;-78
2022/06/26 12:07:04;;;;;;;5.13;1.85;;;;;;;29.56;39.65;100105.91;31304609;28;20053;-76
2022/06/26 12:22:05;;;;;;;3.97;1.58;;;;;;;29.11;41.20;100093.09;31323227;28;20136;-77
2022/06/26 12:37:08;;;;;;;2.65;1.90;;;;;;;28.78;42.55;100089.09;31274896;28;20463;-77
2022/06/26 12:52:10;;;;;;;3.90;1.85;;;;;;;28.14;45.25;100084.69;31315803;28;20049;-78
2022/06/26 13:07:12;;;;;;;3.80;2.13;;;;;;;28.29;46.40;100091.78;31311940;28;20147;-77
2022/06/26 13:22:14;;;;;;;3.72;2.70;;;;;;;28.53;45.96;100085.88;31261460;28;20071;-77
2022/06/26 13:37:17;;;;;;;6.45;2.90;;;;;;;28.15;47.77;100102.19;31347797;28;20143;-77
2022/06/26 13:52:19;;;;;;;6.18;3.08;;;;;;;27.93;48.13;100097.84;31337534;28;20049;-77
2022/06/26 14:07:21;;;;;;;7.47;3.72;;;;;;;27.89;48.11;100105.78;31297177;28;20053;-78
2022/06/26 14:37:44;;;;;;;6.37;3.20;;;;;;;27.52;49.52;100115.88;31298774;28;20364;-77
2022/06/26 14:52:46;;;;;;;5.95;3.47;;;;;;;27.29;50.19;100125.94;31337619;28;20413;-77
2022/06/26 15:07:48;;;;;;;7.85;3.55;;;;;;;27.25;52.10;100114.34;31281936;28;20045;-77
2022/06/26 15:22:54;;;;;;;5.47;2.95;;;;;;;27.17;52.46;100113.47;31283278;28;20562;-76
2022/06/26 15:37:57;;;;;;;8.25;3.67;;;;;;;27.11;52.31;100118.41;31277914;28;20562;-76
2022/06/26 15:52:58;;;;;;;10.50;2.65;;;;;;;27.08;51.78;100128.56;31311244;28;20140;-78
2022/06/26 16:08:00;;;;;;;4.93;2.55;;;;;;;26.77;51.66;100143.97;31307334;28;20093;-76
2022/06/26 16:38:23;;;;;;;5.93;3.00;;;;;;;26.40;52.83;100144.03;31312148;28;20050;-77
2022/06/26 16:53:29;;;;;;;4.25;2.30;;;;;;;26.28;52.86;100153.75;31317366;28;20087;-76
2022/06/26 17:08:31;;;;;;;5.93;2.78;;;;;;;25.93;54.51;100197.19;31300624;28;20051;-75
2022/06/26 17:23:34;;;;;;;5.35;3.20;;;;;;;25.39;56.95;100205.53;31290432;28;20068;-78
2022/06/26 17:38:38;;;;;;;9.88;5.45;;;;;;;24.94;59.28;100222.50;31283118;28;20513;-77
2022/06/26 17:53:39;;;;;;;19.33;6.85;;;;;;;24.34;69.13;100222.31;31301289;28;20144;-76
2022/06/26 18:08:43;;;;;;;5.23;4.13;;;;;;;23.76;77.01;100232.53;31280923;28;20041;-76
2022/06/26 18:23:45;;;;;;;8.93;4.45;;;;;;;22.33;89.46;100238.03;31307680;28;20052;-76
2022/06/26 18:38:47;;;;;;;10.23;4.50;;;;;;;21.93;96.78;100211.44;31348727;28;20059;-76
2022/06/26 18:53:49;;;;;;;8.67;5.23;;;;;;;22.09;98.87;100225.38;31320610;28;20060;-75
2022/06/26 19:08:51;;;;;;;8.50;4.88;;;;;;;22.45;99.10;100228.53;31279106;28;20146;-75
2022/06/26 19:23:53;;;;;;;10.80;4.87;;;;;;;22.38;100.00;100218.72;31263012;28;20067;-76
2022/06/26 19:38:55;;;;;;;10.17;4.70;;;;;;;22.37;100.00;100199.84;31295580;28;20056;-76
2022/06/26 19:53:58;;;;;;;7.43;4.63;;;;;;;22.45;100.00;100206.41;31281980;28;20049;-77
2022/06/26 20:09:00;;;;;;;;;;;;;;;22.38;90.59;100195.84;31316178;28;20087;-78
2022/06/26 20:24:18;;;;;;;13.70;5.82;;;;;;;22.36;94.11;100203.88;31300672;28;19921;-77
2022/06/26 20:39:26;;;;;;;9.27;5.63;;;;;;;22.19;92.79;100206.56;31336934;28;20049;-76
2022/06/26 20:54:28;;;;;;;9.80;5.07;;;;;;;22.10;92.08;100204.75;31334708;28;20059;-76
2022/06/26 21:09:30;;;;;;;8.50;5.57;;;;;;;22.05;90.95;100213.03;31260727;28;20518;-76
2022/06/26 21:24:35;;;;;;;7.53;4.90;;;;;;;22.04;89.71;100198.44;31286138;28;20507;-76
2022/06/26 21:39:37;;;;;;;9.00;4.82;;;;;;;22.11;88.23;100195.22;31321729;28;20046;-77
2022/06/26 21:54:39;;;;;;;17.38;5.22;;;;;;;22.23;86.36;100189.72;31304462;28;20065;-79
2022/06/26 22:09:41;;;;;;;7.40;5.03;;;;;;;22.16;84.50;100195.75;31282720;28;20053;-76
2022/06/26 22:24:43;;;;;;;5.13;3.80;;;;;;;22.11;82.68;100195.22;31292091;28;20067;-76
2022/06/26 22:39:45;;;;;;;8.77;4.33;;;;;;;22.18;78.85;100194.00;31267417;28;20045;-77
2022/06/26 22:54:47;;;;;;;6.65;3.65;;;;;;;22.19;76.86;100194.75;31309945;28;20063;-76
2022/06/26 23:09:49;;;;;;;7.25;3.88;;;;;;;22.05;75.69;100207.50;31279474;28;20470;-77
2022/06/26 23:24:51;;;;;;;5.55;3.60;;;;;;;21.91;75.22;100214.69;31285931;28;20889;-77
2022/06/26 23:39:53;;;;;;;10.57;4.30;;;;;;;21.87;74.72;100214.16;31307514;28;20055;-76
2022/06/26 23:54:55;;;;;;;8.32;3.85;;;;;;;21.74;74.91;100206.28;31278410;28;20054;-76
